Terminal Aerodrome Forecast
Issued by NWS Cleveland, OH

Home | Current Version | Previous Version | Graphics & Text | Print | Product List | Glossary On
Versions: 1 2 3 4 5 6 7 8 9 10 11 12 13 14 15 16 17 18 19 20 21 22 23 24 25 26 27 28 29 30 31 32 33 34 35 36 37
000
FTUS41 KCLE 261700 RRA
TAFCLE
TAF
KCLE 261741Z 2618/2724 22008KT P6SM SCT035
     FM270000 24006KT P6SM SCT035 BKN200
      TEMPO 2700/2704 3SM -TSRA BR OVC035CB
     FM270400 26006KT P6SM BKN120 OVC250
     FM270800 36006KT P6SM SCT015 BKN250
     FM271100 36006KT P6SM BKN015
     FM271600 36010KT P6SM SCT035=

USA.gov is the U.S. government's official web portal to all federal, state and local government web resources and services.